首页
METAR-TAF:

METAR-TAF

机场 :

Langlade County Airport

Antigo, 威斯康辛州, 美国

纬度: 45-09-15N, 经度: 89-06-39W, 海拔: 464米

当前天气观测

该预报发布于8分钟前的23:35 UTC
风速7节,风向北转东北
温度 21°C
湿度 64%
气压 1018 hPa
能見度: 16.1公里
散云层高于5000英尺
多云层高于8500英尺

METAR: KAIG 212335Z AUTO 02007KT 10SM SCT050 BKN085 21/14 A3006 RMK AO2 T02140138

时间: 18:43 (23:43 UTC)


TAF: 丢失

超过4000个机场的气象观测和天气预报(METAR&TAF报告)。

可查询的气象台以黄色和红色小点在地图上表示。

将鼠标移到小点上方,可查看气象台名称。

然后点击查看天气观测和预报。

如需切换地图:点击带黑十字的绿色按钮放大地图;点击带横线的绿色按钮缩小地图;或者点击绿色箭头查看邻近地区的地图。


METAR-TAF: